Locustdale, Pennsylvania
Current Conditions -  °F | °C
As of 6:15 PM on Friday 31 Oct 2014 (Local Time) from KHZL Reporting Station
Scattered Clouds Scattered Clouds  
Wind Chill: 46°   Ceiling: Unl
Heat Index: 46°   Visibility: 10mi
Dew Point: 30°   Wind: 0mph
Humidity: 53%   Direction: NA
Pressure: 29.9"   Gusts: NA
Location:  40.78°N, 76.38°W
Report Text: KHZL 312215Z AUTO 00000KT 10SM SCT050 08/M01 A2990 RMK AO2
Loading
Personal Weather Stations






























Interactive Weather Map
Tropical Storm Tracking
New forecast layout! Learn more

10-Day Weather Forecast

Advertisements
Track Severe Weather on mobile